Turton, South Dakota
Current Conditions -  °F | °C
As of 8:53 PM on Monday 20 Oct 2014 (Local Time) from KABR Reporting Station
Clear Clear  
Wind Chill: 42°   Ceiling: Unl
Heat Index: 44°   Visibility: 10mi
Dew Point: 34°   Wind: 5mph
Humidity: 68%   Direction: 120°ESE
Pressure: 30.01"   Gusts: NA
Location:  45.05°N, 98.1°W
Report Text: KABR 210153Z AUTO 12004KT 10SM CLR 07/01 A3001 RMK AO2 SLP173 T00670011
Loading
Personal Weather Stations






























Interactive Weather Map
Tropical Storm Tracking
New forecast layout! Learn more

10-Day Weather Forecast

Advertisements
Track Severe Weather on mobile